createdAt,value
2018-07-23T00:00:00.495Z,83.10
2018-07-23T00:02:29.598Z,82.50
2018-07-23T00:04:58.758Z,82.60
2018-07-23T00:07:28.041Z,82.60
2018-07-23T00:09:57.358Z,82.80
2018-07-23T00:12:26.681Z,83.00
2018-07-23T00:14:55.845Z,83.30
2018-07-23T00:17:25.041Z,83.20
2018-07-23T00:19:54.410Z,83.60
2018-07-23T00:22:23.517Z,84.00
2018-07-23T00:24:53.055Z,84.00
2018-07-23T00:27:22.204Z,84.20
2018-07-23T00:29:51.599Z,84.40
2018-07-23T00:32:21.569Z,84.70
2018-07-23T00:34:50.754Z,84.40
2018-07-23T00:37:19.949Z,84.90
2018-07-23T00:39:49.130Z,85.10
2018-07-23T00:42:18.452Z,83.90
2018-07-23T00:44:47.520Z,82.60
2018-07-23T00:47:16.799Z,82.10
2018-07-23T00:49:45.869Z,81.90
2018-07-23T00:52:14.992Z,82.00
2018-07-23T00:54:44.007Z,81.50
2018-07-23T00:57:13.238Z,81.50
2018-07-23T00:59:42.607Z,80.90
2018-07-23T01:02:11.536Z,80.90
2018-07-23T01:04:40.502Z,82.20
2018-07-23T01:07:09.582Z,82.30
2018-07-23T01:09:45.074Z,82.40
2018-07-23T01:12:20.437Z,82.40
2018-07-23T01:14:49.381Z,82.10
2018-07-23T01:17:18.208Z,81.50
2018-07-23T01:19:47.223Z,83.20
2018-07-23T01:22:16.062Z,83.60
2018-07-23T01:24:44.919Z,83.90
2018-07-23T01:27:13.792Z,84.50
2018-07-23T01:29:42.669Z,84.70
2018-07-23T01:32:11.658Z,85.30
2018-07-23T01:34:40.534Z,85.30
2018-07-23T01:37:09.371Z,85.40
2018-07-23T01:39:38.492Z,85.90
2018-07-23T01:42:07.363Z,85.90
2018-07-23T01:44:36.555Z,86.50
2018-07-23T01:47:06.468Z,86.70
2018-07-23T01:49:35.602Z,86.40
2018-07-23T01:52:04.883Z,87.00
2018-07-23T01:54:33.842Z,86.60
2018-07-23T01:57:02.788Z,86.90
2018-07-23T02:02:00.317Z,87.30
2018-07-23T02:04:29.184Z,87.30
2018-07-23T02:06:58.055Z,87.00
2018-07-23T02:09:26.894Z,87.00
2018-07-23T02:11:55.765Z,86.90
2018-07-23T02:14:24.798Z,86.40
2018-07-23T02:16:53.915Z,86.80
2018-07-23T02:19:22.847Z,87.10
2018-07-23T02:21:51.869Z,86.40
2018-07-23T02:24:20.728Z,86.60
2018-07-23T02:26:49.659Z,87.40
2018-07-23T02:29:18.493Z,87.20
2018-07-23T02:31:47.413Z,87.20
2018-07-23T02:34:16.262Z,87.20
2018-07-23T02:36:45.206Z,87.00
2018-07-23T02:39:14.048Z,87.00
2018-07-23T02:41:42.928Z,87.10
2018-07-23T02:44:11.818Z,87.30
2018-07-23T02:46:40.709Z,87.20
2018-07-23T02:49:09.528Z,87.30
2018-07-23T02:51:38.428Z,87.00
2018-07-23T02:54:07.460Z,86.70
2018-07-23T02:56:36.565Z,86.70
2018-07-23T02:59:05.743Z,86.70
2018-07-23T03:01:34.574Z,86.60
2018-07-23T03:04:03.383Z,86.50
2018-07-23T03:06:32.508Z,86.90
2018-07-23T03:09:01.608Z,86.80
2018-07-23T03:11:30.702Z,87.20
2018-07-23T03:13:59.542Z,87.50
2018-07-23T03:16:28.509Z,87.20
2018-07-23T03:18:57.393Z,87.50
2018-07-23T03:21:26.493Z,87.70
2018-07-23T03:23:55.393Z,88.00
2018-07-23T03:26:24.693Z,88.20
2018-07-23T03:28:53.562Z,88.60
2018-07-23T03:31:22.658Z,88.70
2018-07-23T03:33:51.737Z,88.80
2018-07-23T03:36:20.633Z,88.50
2018-07-23T03:38:49.677Z,88.80
2018-07-23T03:41:18.551Z,89.00
2018-07-23T03:43:47.454Z,89.10
2018-07-23T03:46:16.623Z,89.40
2018-07-23T03:48:45.655Z,89.20
2018-07-23T03:51:14.553Z,89.20
2018-07-23T03:53:43.539Z,89.10
2018-07-23T03:56:12.410Z,89.20
2018-07-23T03:58:41.325Z,88.80
2018-07-23T04:01:10.216Z,88.50
2018-07-23T04:03:39.113Z,88.20
2018-07-23T04:06:08.009Z,88.60
2018-07-23T04:08:36.858Z,88.80
2018-07-23T04:11:06.015Z,88.70
2018-07-23T04:13:34.873Z,89.00
2018-07-23T04:16:03.938Z,88.70
2018-07-23T04:18:33.004Z,88.50
2018-07-23T04:21:01.931Z,88.00
2018-07-23T04:23:31.087Z,87.90
2018-07-23T04:26:00.858Z,87.80
2018-07-23T04:28:29.784Z,87.90
2018-07-23T04:30:58.666Z,88.00
2018-07-23T04:33:27.747Z,88.30
2018-07-23T04:35:56.908Z,88.20
2018-07-23T04:38:25.798Z,87.90
2018-07-23T04:40:54.690Z,87.90
2018-07-23T04:43:23.589Z,88.00
2018-07-23T04:45:52.450Z,88.10
2018-07-23T04:48:21.335Z,88.10
2018-07-23T04:50:50.208Z,87.80
2018-07-23T04:53:19.101Z,87.90
2018-07-23T04:55:47.986Z,88.10
2018-07-23T05:00:45.449Z,87.60
2018-07-23T05:03:14.338Z,87.70
2018-07-23T05:05:43.420Z,87.80
2018-07-23T05:08:12.599Z,87.80
2018-07-23T05:10:41.693Z,87.70
2018-07-23T05:13:11.078Z,87.70
2018-07-23T05:15:41.068Z,87.60
2018-07-23T05:18:10.220Z,87.40
2018-07-23T05:20:39.525Z,87.30
2018-07-23T05:23:09.460Z,87.30
2018-07-23T05:25:38.527Z,87.10
2018-07-23T05:28:07.932Z,86.90
2018-07-23T05:30:36.930Z,86.60
2018-07-23T05:33:06.126Z,87.20
2018-07-23T05:35:35.360Z,86.30
2018-07-23T05:38:04.668Z,86.20
2018-07-23T05:40:33.757Z,85.80
2018-07-23T05:43:02.840Z,86.00
2018-07-23T05:45:32.860Z,86.10
2018-07-23T05:48:01.922Z,85.40
2018-07-23T05:50:31.221Z,85.70
2018-07-23T05:53:00.426Z,85.70
2018-07-23T05:55:29.761Z,85.50
2018-07-23T05:57:59.128Z,85.40
2018-07-23T06:00:28.280Z,85.10
2018-07-23T06:02:57.391Z,84.90
2018-07-23T06:05:26.468Z,84.40
2018-07-23T06:07:55.827Z,84.40
2018-07-23T06:10:24.930Z,84.70
2018-07-23T06:12:54.250Z,84.10
2018-07-23T06:15:23.161Z,84.10
2018-07-23T06:17:52.331Z,84.00
2018-07-23T06:20:21.489Z,83.70
2018-07-23T06:22:50.681Z,83.40
2018-07-23T06:25:19.901Z,83.70
2018-07-23T06:27:49.172Z,82.90
2018-07-23T06:30:18.531Z,83.10
2018-07-23T06:32:47.600Z,83.20
2018-07-23T06:35:16.779Z,82.40
2018-07-23T06:37:46.070Z,82.60
2018-07-23T06:40:15.396Z,82.00
2018-07-23T06:42:44.560Z,81.40
2018-07-23T06:45:14.037Z,80.80
2018-07-23T06:47:43.401Z,80.60
2018-07-23T06:50:12.609Z,80.70
2018-07-23T06:52:41.704Z,79.90
2018-07-23T06:55:10.827Z,78.80
2018-07-23T06:57:40.264Z,78.90
2018-07-23T07:00:09.463Z,79.10
2018-07-23T07:02:38.937Z,78.80
2018-07-23T07:05:08.070Z,78.00
2018-07-23T07:07:37.711Z,77.50
2018-07-23T07:10:07.913Z,77.90
2018-07-23T07:12:37.434Z,77.80
2018-07-23T07:15:07.568Z,77.50
2018-07-23T07:17:37.050Z,76.60
2018-07-23T07:20:07.003Z,76.60
2018-07-23T07:22:36.411Z,76.40
2018-07-23T07:25:06.671Z,75.20
2018-07-23T07:27:36.574Z,74.90
2018-07-23T07:30:07.173Z,75.90
2018-07-23T07:32:36.916Z,74.70
2018-07-23T07:35:06.220Z,73.70
2018-07-23T07:37:35.799Z,72.40
2018-07-23T07:40:05.284Z,71.60
2018-07-23T07:42:34.727Z,71.00
2018-07-23T07:45:04.272Z,71.50
2018-07-23T07:50:02.561Z,68.80
2018-07-23T07:52:31.954Z,66.50
2018-07-23T07:55:01.528Z,67.20
2018-07-23T07:57:30.800Z,67.60
2018-07-23T07:59:59.960Z,68.40
2018-07-23T08:02:29.223Z,67.50
2018-07-23T08:04:58.631Z,67.00
2018-07-23T08:07:28.016Z,66.70
2018-07-23T08:09:57.355Z,66.20
2018-07-23T08:12:26.649Z,65.90
2018-07-23T08:14:55.999Z,65.50
2018-07-23T08:17:25.421Z,65.30
2018-07-23T08:19:55.081Z,65.00
2018-07-23T08:22:24.388Z,65.30
2018-07-23T08:24:53.716Z,64.40
2018-07-23T08:27:22.916Z,64.30
2018-07-23T08:29:52.206Z,64.00
2018-07-23T08:32:21.569Z,63.30
2018-07-23T08:34:51.168Z,62.50
2018-07-23T08:37:20.688Z,61.50
2018-07-23T08:39:50.296Z,61.40
2018-07-23T08:42:19.949Z,61.00
2018-07-23T08:44:49.732Z,60.50
2018-07-23T08:47:18.892Z,59.00
2018-07-23T08:49:48.180Z,58.40
2018-07-23T08:52:18.378Z,58.70
2018-07-23T08:54:48.012Z,57.90
2018-07-23T08:57:17.432Z,58.10
2018-07-23T08:59:46.846Z,58.60
2018-07-23T09:02:16.173Z,57.70
2018-07-23T09:04:45.534Z,57.50
2018-07-23T09:09:43.801Z,56.90
2018-07-23T09:12:13.118Z,57.30
2018-07-23T09:14:42.581Z,57.50
2018-07-23T09:17:12.131Z,57.40
2018-07-23T09:19:41.564Z,57.70
2018-07-23T09:22:11.076Z,58.30
2018-07-23T09:24:40.632Z,58.10
2018-07-23T09:27:09.858Z,58.00
2018-07-23T09:29:39.485Z,57.90
2018-07-23T09:32:08.691Z,58.00
2018-07-23T09:34:38.234Z,57.80
2018-07-23T09:37:07.568Z,57.50
2018-07-23T09:39:36.841Z,57.50
2018-07-23T09:42:06.192Z,57.50
2018-07-23T09:44:35.665Z,57.70
2018-07-23T09:47:04.928Z,56.80
2018-07-23T09:49:35.200Z,56.60
2018-07-23T09:52:04.842Z,56.20
2018-07-23T09:54:34.096Z,56.00
2018-07-23T09:57:03.405Z,56.50
2018-07-23T09:59:32.859Z,56.00
2018-07-23T10:02:02.252Z,56.40
2018-07-23T10:04:31.858Z,56.10
2018-07-23T10:07:01.252Z,56.40
2018-07-23T10:09:30.572Z,55.30
2018-07-23T10:12:00.072Z,54.10
2018-07-23T10:14:29.898Z,53.90
2018-07-23T10:16:59.228Z,53.20
2018-07-23T10:19:28.617Z,52.30
2018-07-23T10:21:58.011Z,52.20
2018-07-23T10:24:27.232Z,50.70
2018-07-23T10:26:56.722Z,51.50
2018-07-23T10:29:26.333Z,50.20
2018-07-23T10:31:55.425Z,50.70
2018-07-23T10:34:24.815Z,49.80
2018-07-23T10:36:54.274Z,49.40
2018-07-23T10:39:23.731Z,49.30
2018-07-23T10:41:53.057Z,48.40
2018-07-23T10:44:22.359Z,48.40
2018-07-23T10:46:51.601Z,47.30
2018-07-23T10:49:20.872Z,47.30
2018-07-23T10:51:50.215Z,48.10
2018-07-23T10:54:19.416Z,48.50
2018-07-23T10:56:48.641Z,48.70
2018-07-23T10:59:18.227Z,48.20
2018-07-23T11:01:48.075Z,48.30
2018-07-23T11:04:17.442Z,47.10
2018-07-23T11:09:15.891Z,47.10
2018-07-23T11:11:45.317Z,46.60
2018-07-23T11:14:14.772Z,46.10
2018-07-23T11:16:44.043Z,45.90
2018-07-23T11:19:13.340Z,45.20
2018-07-23T11:21:42.964Z,44.40
2018-07-23T11:24:12.441Z,43.60
2018-07-23T11:26:42.232Z,43.60
2018-07-23T11:29:11.540Z,44.60
2018-07-23T11:31:41.028Z,46.20
2018-07-23T11:34:10.429Z,47.90
2018-07-23T11:36:40.091Z,48.30
2018-07-23T11:39:11.255Z,48.70
2018-07-23T11:41:40.882Z,49.10
2018-07-23T11:44:10.104Z,49.10
2018-07-23T11:46:39.377Z,49.70
2018-07-23T11:49:08.676Z,50.30
2018-07-23T11:51:38.321Z,50.30
2018-07-23T11:54:07.642Z,50.00
2018-07-23T11:56:37.025Z,50.10
2018-07-23T11:59:06.537Z,50.10
2018-07-23T12:01:36.139Z,49.70
2018-07-23T12:04:10.405Z,47.50
2018-07-23T12:06:35.283Z,45.90
2018-07-23T12:09:07.281Z,45.10
2018-07-23T12:11:36.720Z,44.80
2018-07-23T12:14:07.712Z,42.80
2018-07-23T12:16:37.180Z,42.60
2018-07-23T12:19:06.792Z,42.40
2018-07-23T12:21:36.470Z,42.90
2018-07-23T12:24:06.004Z,42.00
2018-07-23T12:26:35.413Z,41.10
2018-07-23T12:29:04.968Z,40.80
2018-07-23T12:31:34.739Z,40.70
2018-07-23T12:34:04.063Z,41.70
2018-07-23T12:36:33.813Z,42.40
2018-07-23T12:39:03.997Z,42.70
2018-07-23T12:41:33.677Z,42.70
2018-07-23T12:44:02.884Z,41.80
2018-07-23T12:46:32.598Z,42.60
2018-07-23T12:49:01.903Z,43.80
2018-07-23T12:51:31.567Z,45.20
2018-07-23T12:54:00.771Z,46.90
2018-07-23T12:58:58.964Z,47.80
2018-07-23T13:01:28.432Z,48.00
2018-07-23T13:03:57.908Z,48.40
2018-07-23T13:06:27.562Z,48.20
2018-07-23T13:08:57.310Z,47.90
2018-07-23T13:11:26.723Z,47.90
2018-07-23T13:13:56.145Z,47.80
2018-07-23T13:16:25.383Z,47.50
2018-07-23T13:18:55.060Z,47.30
2018-07-23T13:21:25.910Z,45.50
2018-07-23T13:23:56.072Z,43.60
2018-07-23T13:26:25.968Z,41.60
2018-07-23T13:28:55.603Z,41.20
2018-07-23T13:31:24.988Z,41.70
2018-07-23T13:33:54.514Z,41.40
2018-07-23T13:36:23.859Z,41.90
2018-07-23T13:38:53.362Z,41.10
2018-07-23T13:41:23.552Z,40.40
2018-07-23T13:43:53.431Z,39.20
2018-07-23T13:46:22.774Z,38.50
2018-07-23T13:48:52.539Z,39.00
2018-07-23T13:51:22.081Z,38.80
2018-07-23T13:53:51.382Z,40.00
2018-07-23T13:56:20.917Z,41.20
2018-07-23T13:58:50.424Z,42.20
2018-07-23T14:01:20.009Z,42.70
2018-07-23T14:03:49.562Z,43.10
2018-07-23T14:06:19.035Z,43.40
2018-07-23T14:08:51.534Z,43.90
2018-07-23T14:11:21.378Z,44.20
2018-07-23T14:13:51.001Z,43.50
2018-07-23T14:16:20.711Z,42.70
2018-07-23T14:18:50.155Z,41.40
2018-07-23T14:21:19.459Z,39.70
2018-07-23T14:23:49.093Z,37.30
2018-07-23T14:26:18.585Z,36.50
2018-07-23T14:28:48.225Z,37.30
2018-07-23T14:31:17.456Z,37.60
2018-07-23T14:33:47.062Z,37.10
2018-07-23T14:36:16.580Z,36.20
2018-07-23T14:38:46.367Z,36.90
2018-07-23T14:41:15.937Z,36.80
2018-07-23T14:43:45.280Z,38.10
2018-07-23T14:46:14.948Z,39.00
2018-07-23T14:48:44.570Z,39.50
2018-07-23T14:51:14.166Z,39.30
2018-07-23T14:53:43.902Z,39.00
2018-07-23T14:56:13.426Z,38.60
2018-07-23T14:58:42.997Z,38.70
2018-07-23T15:01:12.910Z,38.70
2018-07-23T15:03:42.650Z,39.50
2018-07-23T15:06:11.813Z,39.50
2018-07-23T15:08:41.328Z,40.20
2018-07-23T15:11:10.832Z,39.90
2018-07-23T15:13:40.284Z,39.00
2018-07-23T15:16:09.642Z,38.40
2018-07-23T15:18:39.634Z,39.00
2018-07-23T15:21:08.818Z,39.60
2018-07-23T15:23:38.043Z,39.80
2018-07-23T15:26:07.325Z,39.60
2018-07-23T15:28:36.474Z,40.10
2018-07-23T15:31:05.541Z,40.60
2018-07-23T15:33:34.958Z,39.20
2018-07-23T15:36:04.213Z,38.20
2018-07-23T15:38:34.131Z,37.60
2018-07-23T15:41:03.264Z,38.20
2018-07-23T15:43:32.641Z,38.40
2018-07-23T15:46:02.034Z,39.00
2018-07-23T15:48:31.043Z,39.90
2018-07-23T15:51:01.058Z,40.80
2018-07-23T15:53:30.303Z,41.30
2018-07-23T15:55:59.323Z,41.60
2018-07-23T15:58:28.492Z,42.20
2018-07-23T16:00:57.549Z,42.60
2018-07-23T16:03:27.545Z,43.10
2018-07-23T16:05:56.784Z,43.70
2018-07-23T16:08:25.990Z,43.30
2018-07-23T16:10:55.012Z,43.40
2018-07-23T16:13:24.165Z,43.20
2018-07-23T16:15:53.189Z,42.70
2018-07-23T16:18:22.174Z,42.10
2018-07-23T16:20:51.205Z,42.30
2018-07-23T16:23:20.309Z,41.80
2018-07-23T16:25:49.600Z,42.30
2018-07-23T16:28:18.771Z,42.10
2018-07-23T16:30:47.951Z,41.90
2018-07-23T16:33:16.897Z,42.20
2018-07-23T16:35:46.126Z,42.50
2018-07-23T16:38:15.191Z,43.40
2018-07-23T16:40:44.327Z,43.60
2018-07-23T16:43:13.592Z,44.40
2018-07-23T16:45:42.587Z,44.50
2018-07-23T16:48:12.962Z,45.00
2018-07-23T16:50:42.100Z,45.20
2018-07-23T16:53:11.205Z,45.30
2018-07-23T16:55:40.272Z,45.00
2018-07-23T16:58:09.205Z,44.80
2018-07-23T17:00:38.172Z,44.90
2018-07-23T17:03:07.339Z,44.50
2018-07-23T17:05:36.511Z,44.90
2018-07-23T17:08:05.479Z,44.50
2018-07-23T17:10:34.725Z,44.90
2018-07-23T17:13:03.744Z,45.20
2018-07-23T17:15:32.706Z,44.80
2018-07-23T17:18:01.770Z,44.90
2018-07-23T17:20:30.813Z,45.00
2018-07-23T17:22:59.768Z,45.20
2018-07-23T17:25:28.841Z,44.80
2018-07-23T17:27:57.791Z,44.90
2018-07-23T17:30:26.788Z,44.70
2018-07-23T17:32:55.854Z,45.00
2018-07-23T17:35:25.003Z,45.30
2018-07-23T17:37:54.030Z,45.20
2018-07-23T17:40:22.993Z,45.20
2018-07-23T17:42:52.332Z,45.40
2018-07-23T17:45:21.576Z,45.70
2018-07-23T17:47:50.534Z,45.70
2018-07-23T17:50:19.568Z,46.20
2018-07-23T17:52:48.504Z,46.60
2018-07-23T17:55:17.475Z,46.50
2018-07-23T17:57:46.627Z,46.80
2018-07-23T18:00:15.790Z,46.90
2018-07-23T18:02:44.717Z,47.10
2018-07-23T18:05:13.723Z,47.40
2018-07-23T18:07:42.951Z,47.50
2018-07-23T18:10:12.148Z,47.50
2018-07-23T18:12:41.168Z,47.80
2018-07-23T18:15:10.355Z,48.10
2018-07-23T18:17:39.296Z,48.20
2018-07-23T18:20:08.496Z,48.60
2018-07-23T18:22:37.540Z,49.20
2018-07-23T18:25:06.565Z,49.50
2018-07-23T18:27:35.529Z,49.30
2018-07-23T18:30:05.507Z,49.60
2018-07-23T18:32:34.483Z,50.10
2018-07-23T18:35:04.264Z,50.20
2018-07-23T18:37:33.216Z,50.90
2018-07-23T18:40:02.265Z,51.30
2018-07-23T18:42:31.653Z,51.50
2018-07-23T18:45:00.861Z,51.90
2018-07-23T18:47:29.867Z,51.60
2018-07-23T18:50:00.084Z,52.00
2018-07-23T18:52:30.241Z,52.10
2018-07-23T18:55:06.029Z,52.60
2018-07-23T18:57:35.178Z,52.70
2018-07-23T19:00:05.058Z,53.10
2018-07-23T19:02:34.138Z,53.20
2018-07-23T19:05:03.289Z,53.90
2018-07-23T19:07:32.263Z,53.80
2018-07-23T19:10:01.394Z,54.10
2018-07-23T19:12:30.564Z,54.70
2018-07-23T19:14:59.598Z,55.30
2018-07-23T19:17:28.542Z,55.90
2018-07-23T19:19:57.515Z,57.00
2018-07-23T19:22:26.769Z,57.20
2018-07-23T19:24:55.749Z,57.60
2018-07-23T19:27:24.797Z,58.20
2018-07-23T19:29:53.633Z,58.30
2018-07-23T19:32:22.691Z,58.70
2018-07-23T19:34:51.728Z,58.80
2018-07-23T19:37:20.746Z,59.00
2018-07-23T19:39:49.695Z,59.20
2018-07-23T19:42:18.942Z,59.60
2018-07-23T19:44:47.939Z,60.20
2018-07-23T19:47:17.032Z,61.50
2018-07-23T19:49:46.093Z,62.30
2018-07-23T19:52:15.069Z,63.00
2018-07-23T19:54:44.125Z,62.70
2018-07-23T19:57:13.155Z,62.90
2018-07-23T19:59:42.076Z,63.20
2018-07-23T20:02:11.193Z,63.70
2018-07-23T20:04:40.121Z,64.50
2018-07-23T20:07:09.136Z,65.00
2018-07-23T20:09:38.231Z,65.20
2018-07-23T20:12:07.493Z,66.40
2018-07-23T20:17:05.155Z,67.00
2018-07-23T20:19:34.109Z,66.60
2018-07-23T20:22:03.165Z,66.60
2018-07-23T20:24:32.235Z,67.50
2018-07-23T20:27:01.332Z,67.80
2018-07-23T20:29:30.270Z,67.90
2018-07-23T20:31:59.251Z,68.60
2018-07-23T20:34:28.233Z,69.10
2018-07-23T20:36:57.328Z,69.50
2018-07-23T20:39:26.230Z,69.40
2018-07-23T20:41:55.556Z,69.60
2018-07-23T20:44:24.469Z,70.00
2018-07-23T20:46:53.653Z,70.50
2018-07-23T20:49:22.580Z,70.80
2018-07-23T20:51:51.560Z,71.00
2018-07-23T20:54:20.512Z,71.50
2018-07-23T20:56:49.611Z,71.70
2018-07-23T20:59:18.701Z,72.00
2018-07-23T21:01:47.725Z,72.00
2018-07-23T21:04:16.641Z,72.00
2018-07-23T21:06:45.844Z,71.90
2018-07-23T21:09:14.756Z,71.70
2018-07-23T21:11:43.703Z,72.10
2018-07-23T21:14:12.713Z,72.20
2018-07-23T21:16:41.648Z,72.40
2018-07-23T21:19:10.723Z,72.40
2018-07-23T21:21:39.739Z,72.70
2018-07-23T21:24:09.406Z,72.60
2018-07-23T21:26:38.333Z,72.90
2018-07-23T21:29:07.342Z,73.40
2018-07-23T21:31:36.270Z,73.20
2018-07-23T21:34:05.354Z,72.50
2018-07-23T21:36:34.310Z,72.30
2018-07-23T21:39:03.913Z,72.80
2018-07-23T21:41:32.915Z,73.10
2018-07-23T21:44:01.843Z,73.50
2018-07-23T21:46:31.204Z,73.50
2018-07-23T21:49:01.280Z,73.60
2018-07-23T21:51:30.246Z,73.50
2018-07-23T21:54:00.204Z,73.30
2018-07-23T21:56:29.778Z,73.60
2018-07-23T21:58:58.983Z,73.70
2018-07-23T22:01:28.853Z,74.20
2018-07-23T22:03:57.826Z,74.30
2018-07-23T22:06:26.945Z,74.60
2018-07-23T22:08:56.785Z,75.10
2018-07-23T22:11:25.767Z,75.20
2018-07-23T22:13:54.886Z,75.60
2018-07-23T22:16:23.783Z,75.20
2018-07-23T22:18:52.924Z,75.50
2018-07-23T22:21:23.285Z,75.50
2018-07-23T22:23:52.231Z,76.20
2018-07-23T22:26:21.373Z,76.60
2018-07-23T22:28:50.403Z,76.90
2018-07-23T22:31:19.492Z,77.20
2018-07-23T22:33:48.536Z,77.70
2018-07-23T22:36:17.949Z,77.80
2018-07-23T22:38:46.908Z,77.70
2018-07-23T22:41:16.608Z,78.00
2018-07-23T22:43:45.586Z,78.30
2018-07-23T22:46:14.728Z,78.50
2018-07-23T22:48:43.823Z,78.50
2018-07-23T22:51:12.764Z,78.70
2018-07-23T22:53:41.843Z,78.50
2018-07-23T22:56:10.844Z,78.80
2018-07-23T22:58:39.828Z,78.60
2018-07-23T23:01:08.903Z,78.90
2018-07-23T23:03:38.015Z,78.90
2018-07-23T23:06:06.969Z,79.40
2018-07-23T23:08:35.968Z,79.40
2018-07-23T23:11:04.938Z,79.60
2018-07-23T23:13:33.973Z,79.50
2018-07-23T23:16:02.964Z,79.40
2018-07-23T23:21:00.648Z,79.50
2018-07-23T23:23:29.863Z,79.60
2018-07-23T23:25:58.823Z,79.80
2018-07-23T23:28:27.743Z,79.80
2018-07-23T23:30:56.666Z,79.80
2018-07-23T23:33:25.576Z,80.20
2018-07-23T23:35:54.495Z,80.40
2018-07-23T23:40:52.113Z,81.10
2018-07-23T23:43:21.358Z,81.30
2018-07-23T23:45:50.263Z,81.40
2018-07-23T23:48:19.412Z,81.60
2018-07-23T23:50:48.578Z,81.60
2018-07-23T23:53:17.573Z,81.60
2018-07-23T23:55:46.746Z,81.60
2018-07-23T23:58:15.758Z,81.50
